sensor_id;sensor_type;location;lat;lon;timestamp;P1;durP1;ratioP1;P2;durP2;ratioP2
62584;SDS011;48643;51.670;5.808;2023-03-01T00:02:01;8.95;;;4.70;;
62584;SDS011;48643;51.670;5.808;2023-03-01T00:04:28;6.55;;;4.50;;
62584;SDS011;48643;51.670;5.808;2023-03-01T00:06:55;7.97;;;4.43;;
62584;SDS011;48643;51.670;5.808;2023-03-01T00:09:22;6.80;;;4.28;;
62584;SDS011;48643;51.670;5.808;2023-03-01T00:11:49;7.65;;;4.75;;
62584;SDS011;48643;51.670;5.808;2023-03-01T00:14:17;6.03;;;4.40;;
62584;SDS011;48643;51.670;5.808;2023-03-01T00:16:44;8.07;;;4.47;;
62584;SDS011;48643;51.670;5.808;2023-03-01T00:19:13;7.65;;;4.93;;
62584;SDS011;48643;51.670;5.808;2023-03-01T00:21:41;6.72;;;4.28;;
62584;SDS011;48643;51.670;5.808;2023-03-01T00:24:08;8.20;;;4.43;;
62584;SDS011;48643;51.670;5.808;2023-03-01T00:26:35;6.68;;;4.45;;
62584;SDS011;48643;51.670;5.808;2023-03-01T00:29:03;7.20;;;4.43;;
62584;SDS011;48643;51.670;5.808;2023-03-01T00:31:31;7.47;;;4.80;;
62584;SDS011;48643;51.670;5.808;2023-03-01T00:34:00;6.82;;;4.68;;
62584;SDS011;48643;51.670;5.808;2023-03-01T00:36:29;8.02;;;4.78;;
62584;SDS011;48643;51.670;5.808;2023-03-01T00:39:01;6.22;;;4.25;;
62584;SDS011;48643;51.670;5.808;2023-03-01T00:41:31;8.55;;;4.75;;
62584;SDS011;48643;51.670;5.808;2023-03-01T00:44:00;6.47;;;4.30;;
62584;SDS011;48643;51.670;5.808;2023-03-01T00:46:28;7.63;;;4.78;;
62584;SDS011;48643;51.670;5.808;2023-03-01T00:48:56;7.65;;;4.68;;
62584;SDS011;48643;51.670;5.808;2023-03-01T00:51:25;8.27;;;4.70;;
62584;SDS011;48643;51.670;5.808;2023-03-01T00:53:56;7.63;;;4.72;;
62584;SDS011;48643;51.670;5.808;2023-03-01T00:56:24;8.00;;;4.50;;
62584;SDS011;48643;51.670;5.808;2023-03-01T00:58:52;7.13;;;4.75;;
62584;SDS011;48643;51.670;5.808;2023-03-01T01:01:20;7.65;;;4.70;;
62584;SDS011;48643;51.670;5.808;2023-03-01T01:03:50;6.45;;;4.53;;
62584;SDS011;48643;51.670;5.808;2023-03-01T01:06:28;6.47;;;4.45;;
62584;SDS011;48643;51.670;5.808;2023-03-01T01:08:57;7.68;;;4.72;;
62584;SDS011;48643;51.670;5.808;2023-03-01T01:11:25;6.90;;;4.60;;
62584;SDS011;48643;51.670;5.808;2023-03-01T01:13:52;7.20;;;4.68;;
62584;SDS011;48643;51.670;5.808;2023-03-01T01:16:20;7.93;;;4.43;;
62584;SDS011;48643;51.670;5.808;2023-03-01T01:18:48;6.53;;;4.37;;
62584;SDS011;48643;51.670;5.808;2023-03-01T01:21:16;6.90;;;4.60;;
62584;SDS011;48643;51.670;5.808;2023-03-01T01:23:45;8.32;;;4.70;;
62584;SDS011;48643;51.670;5.808;2023-03-01T01:26:14;8.13;;;4.80;;
62584;SDS011;48643;51.670;5.808;2023-03-01T01:28:43;8.35;;;4.95;;
62584;SDS011;48643;51.670;5.808;2023-03-01T01:31:10;7.03;;;4.50;;
62584;SDS011;48643;51.670;5.808;2023-03-01T01:33:37;7.68;;;4.95;;
62584;SDS011;48643;51.670;5.808;2023-03-01T01:36:04;7.13;;;4.65;;
62584;SDS011;48643;51.670;5.808;2023-03-01T01:38:32;7.22;;;4.88;;
62584;SDS011;48643;51.670;5.808;2023-03-01T01:41:00;7.28;;;4.68;;
62584;SDS011;48643;51.670;5.808;2023-03-01T01:43:33;6.65;;;4.60;;
62584;SDS011;48643;51.670;5.808;2023-03-01T01:46:06;8.10;;;4.57;;
62584;SDS011;48643;51.670;5.808;2023-03-01T01:48:52;6.97;;;4.50;;
62584;SDS011;48643;51.670;5.808;2023-03-01T01:51:23;7.93;;;4.90;;
62584;SDS011;48643;51.670;5.808;2023-03-01T01:53:57;7.22;;;4.93;;
62584;SDS011;48643;51.670;5.808;2023-03-01T01:56:26;7.72;;;4.88;;
62584;SDS011;48643;51.670;5.808;2023-03-01T01:58:53;7.50;;;4.78;;
62584;SDS011;48643;51.670;5.808;2023-03-01T02:01:20;7.72;;;4.85;;
62584;SDS011;48643;51.670;5.808;2023-03-01T02:03:48;8.73;;;4.90;;
62584;SDS011;48643;51.670;5.808;2023-03-01T02:06:17;7.45;;;4.68;;
62584;SDS011;48643;51.670;5.808;2023-03-01T02:08:46;7.18;;;4.68;;
62584;SDS011;48643;51.670;5.808;2023-03-01T02:11:14;7.50;;;4.90;;
62584;SDS011;48643;51.670;5.808;2023-03-01T02:13:41;6.70;;;4.70;;
62584;SDS011;48643;51.670;5.808;2023-03-01T02:16:10;7.35;;;5.00;;
62584;SDS011;48643;51.670;5.808;2023-03-01T02:18:39;6.70;;;4.35;;
62584;SDS011;48643;51.670;5.808;2023-03-01T02:23:40;7.43;;;4.60;;
62584;SDS011;48643;51.670;5.808;2023-03-01T02:28:50;7.28;;;4.55;;
62584;SDS011;48643;51.670;5.808;2023-03-01T02:31:18;7.53;;;4.68;;
62584;SDS011;48643;51.670;5.808;2023-03-01T02:34:05;7.28;;;4.68;;
62584;SDS011;48643;51.670;5.808;2023-03-01T02:36:37;7.57;;;4.97;;
62584;SDS011;48643;51.670;5.808;2023-03-01T02:39:11;7.53;;;4.80;;
62584;SDS011;48643;51.670;5.808;2023-03-01T02:41:44;5.93;;;4.43;;
62584;SDS011;48643;51.670;5.808;2023-03-01T02:44:14;7.82;;;4.88;;
62584;SDS011;48643;51.670;5.808;2023-03-01T02:46:43;7.18;;;4.75;;
62584;SDS011;48643;51.670;5.808;2023-03-01T02:49:24;6.57;;;4.77;;
62584;SDS011;48643;51.670;5.808;2023-03-01T02:52:12;8.18;;;4.80;;
62584;SDS011;48643;51.670;5.808;2023-03-01T02:55:04;7.95;;;4.63;;
62584;SDS011;48643;51.670;5.808;2023-03-01T02:57:35;7.13;;;4.50;;
62584;SDS011;48643;51.670;5.808;2023-03-01T03:00:06;6.97;;;4.80;;
62584;SDS011;48643;51.670;5.808;2023-03-01T03:02:50;8.15;;;4.75;;
62584;SDS011;48643;51.670;5.808;2023-03-01T03:05:21;6.68;;;4.70;;
62584;SDS011;48643;51.670;5.808;2023-03-01T03:07:53;7.43;;;4.78;;
62584;SDS011;48643;51.670;5.808;2023-03-01T03:10:25;7.25;;;4.90;;
62584;SDS011;48643;51.670;5.808;2023-03-01T03:12:55;7.68;;;5.13;;
62584;SDS011;48643;51.670;5.808;2023-03-01T03:15:23;7.45;;;4.90;;
62584;SDS011;48643;51.670;5.808;2023-03-01T03:17:52;7.35;;;4.60;;
62584;SDS011;48643;51.670;5.808;2023-03-01T03:20:20;6.50;;;4.68;;
62584;SDS011;48643;51.670;5.808;2023-03-01T03:22:49;6.38;;;4.80;;
62584;SDS011;48643;51.670;5.808;2023-03-01T03:25:17;8.40;;;4.93;;
62584;SDS011;48643;51.670;5.808;2023-03-01T03:27:46;7.80;;;4.80;;
62584;SDS011;48643;51.670;5.808;2023-03-01T03:30:18;7.63;;;4.80;;
62584;SDS011;48643;51.670;5.808;2023-03-01T03:32:46;7.30;;;4.60;;
62584;SDS011;48643;51.670;5.808;2023-03-01T03:35:21;6.97;;;4.53;;
62584;SDS011;48643;51.670;5.808;2023-03-01T03:37:50;7.90;;;5.20;;
62584;SDS011;48643;51.670;5.808;2023-03-01T03:40:30;6.00;;;4.53;;
62584;SDS011;48643;51.670;5.808;2023-03-01T03:43:00;9.05;;;5.20;;
62584;SDS011;48643;51.670;5.808;2023-03-01T03:45:27;8.32;;;5.05;;
62584;SDS011;48643;51.670;5.808;2023-03-01T03:47:54;7.50;;;4.80;;
62584;SDS011;48643;51.670;5.808;2023-03-01T03:50:22;9.93;;;5.20;;
62584;SDS011;48643;51.670;5.808;2023-03-01T03:52:48;6.57;;;4.65;;
62584;SDS011;48643;51.670;5.808;2023-03-01T03:55:15;9.07;;;4.40;;
62584;SDS011;48643;51.670;5.808;2023-03-01T03:57:46;7.40;;;5.00;;
62584;SDS011;48643;51.670;5.808;2023-03-01T04:00:18;8.20;;;4.93;;
62584;SDS011;48643;51.670;5.808;2023-03-01T04:02:47;7.43;;;4.82;;
62584;SDS011;48643;51.670;5.808;2023-03-01T04:05:16;7.43;;;4.78;;
62584;SDS011;48643;51.670;5.808;2023-03-01T04:07:44;7.20;;;4.53;;
62584;SDS011;48643;51.670;5.808;2023-03-01T04:10:13;8.55;;;5.10;;
62584;SDS011;48643;51.670;5.808;2023-03-01T04:12:41;7.78;;;5.13;;
62584;SDS011;48643;51.670;5.808;2023-03-01T04:15:11;12.00;;;4.93;;
62584;SDS011;48643;51.670;5.808;2023-03-01T04:17:42;7.82;;;5.22;;
62584;SDS011;48643;51.670;5.808;2023-03-01T04:20:10;9.07;;;5.43;;
62584;SDS011;48643;51.670;5.808;2023-03-01T04:22:39;9.10;;;5.15;;
62584;SDS011;48643;51.670;5.808;2023-03-01T04:25:07;8.33;;;5.37;;
62584;SDS011;48643;51.670;5.808;2023-03-01T04:27:35;8.45;;;5.28;;
62584;SDS011;48643;51.670;5.808;2023-03-01T04:30:02;7.75;;;5.32;;
62584;SDS011;48643;51.670;5.808;2023-03-01T04:32:30;8.63;;;5.07;;
62584;SDS011;48643;51.670;5.808;2023-03-01T04:34:57;7.55;;;5.05;;
62584;SDS011;48643;51.670;5.808;2023-03-01T04:37:23;7.70;;;4.95;;
62584;SDS011;48643;51.670;5.808;2023-03-01T04:39:51;8.27;;;5.40;;
62584;SDS011;48643;51.670;5.808;2023-03-01T04:42:18;8.63;;;5.47;;
62584;SDS011;48643;51.670;5.808;2023-03-01T04:44:45;7.90;;;5.38;;
62584;SDS011;48643;51.670;5.808;2023-03-01T04:47:12;8.57;;;5.30;;
62584;SDS011;48643;51.670;5.808;2023-03-01T04:49:39;8.85;;;5.78;;
62584;SDS011;48643;51.670;5.808;2023-03-01T04:52:05;10.07;;;4.95;;
62584;SDS011;48643;51.670;5.808;2023-03-01T04:54:33;7.35;;;5.20;;
62584;SDS011;48643;51.670;5.808;2023-03-01T04:57:00;9.45;;;5.47;;
62584;SDS011;48643;51.670;5.808;2023-03-01T04:59:28;7.88;;;4.80;;
62584;SDS011;48643;51.670;5.808;2023-03-01T05:01:56;9.73;;;5.35;;
62584;SDS011;48643;51.670;5.808;2023-03-01T05:04:23;8.80;;;5.20;;
62584;SDS011;48643;51.670;5.808;2023-03-01T05:06:50;9.70;;;5.47;;
62584;SDS011;48643;51.670;5.808;2023-03-01T05:09:19;8.18;;;5.32;;
62584;SDS011;48643;51.670;5.808;2023-03-01T05:11:46;8.23;;;5.35;;
62584;SDS011;48643;51.670;5.808;2023-03-01T05:14:13;8.45;;;5.78;;
62584;SDS011;48643;51.670;5.808;2023-03-01T05:16:39;12.02;;;5.53;;
62584;SDS011;48643;51.670;5.808;2023-03-01T05:19:06;9.68;;;5.63;;
62584;SDS011;48643;51.670;5.808;2023-03-01T05:21:42;9.45;;;5.55;;
62584;SDS011;48643;51.670;5.808;2023-03-01T05:24:28;8.57;;;5.35;;
62584;SDS011;48643;51.670;5.808;2023-03-01T05:26:59;10.23;;;5.50;;
62584;SDS011;48643;51.670;5.808;2023-03-01T05:29:27;10.85;;;5.63;;
62584;SDS011;48643;51.670;5.808;2023-03-01T05:31:56;8.43;;;5.38;;
62584;SDS011;48643;51.670;5.808;2023-03-01T05:34:25;8.32;;;5.40;;
62584;SDS011;48643;51.670;5.808;2023-03-01T05:36:52;9.07;;;5.32;;
62584;SDS011;48643;51.670;5.808;2023-03-01T05:39:20;8.55;;;5.32;;
62584;SDS011;48643;51.670;5.808;2023-03-01T05:41:53;8.05;;;5.10;;
62584;SDS011;48643;51.670;5.808;2023-03-01T05:44:21;9.23;;;5.65;;
62584;SDS011;48643;51.670;5.808;2023-03-01T05:46:48;10.40;;;5.57;;
62584;SDS011;48643;51.670;5.808;2023-03-01T05:49:15;8.30;;;5.22;;
62584;SDS011;48643;51.670;5.808;2023-03-01T05:51:43;8.43;;;5.68;;
62584;SDS011;48643;51.670;5.808;2023-03-01T05:54:13;7.90;;;5.38;;
62584;SDS011;48643;51.670;5.808;2023-03-01T05:56:40;8.80;;;5.82;;
62584;SDS011;48643;51.670;5.808;2023-03-01T05:59:07;9.48;;;5.75;;
62584;SDS011;48643;51.670;5.808;2023-03-01T06:01:34;10.60;;;5.80;;
62584;SDS011;48643;51.670;5.808;2023-03-01T06:04:01;8.55;;;5.45;;
62584;SDS011;48643;51.670;5.808;2023-03-01T06:06:29;8.73;;;5.50;;
62584;SDS011;48643;51.670;5.808;2023-03-01T06:08:56;9.60;;;5.68;;
62584;SDS011;48643;51.670;5.808;2023-03-01T06:11:23;8.48;;;5.53;;
62584;SDS011;48643;51.670;5.808;2023-03-01T06:13:50;8.88;;;5.80;;
62584;SDS011;48643;51.670;5.808;2023-03-01T06:16:17;11.43;;;5.72;;
62584;SDS011;48643;51.670;5.808;2023-03-01T06:18:44;8.82;;;5.45;;
62584;SDS011;48643;51.670;5.808;2023-03-01T06:21:11;8.43;;;5.55;;
62584;SDS011;48643;51.670;5.808;2023-03-01T06:23:38;8.20;;;5.35;;
62584;SDS011;48643;51.670;5.808;2023-03-01T06:26:05;10.13;;;5.80;;
62584;SDS011;48643;51.670;5.808;2023-03-01T06:28:33;8.95;;;5.75;;
62584;SDS011;48643;51.670;5.808;2023-03-01T06:31:01;7.70;;;5.40;;
62584;SDS011;48643;51.670;5.808;2023-03-01T06:33:28;9.98;;;5.95;;
62584;SDS011;48643;51.670;5.808;2023-03-01T06:35:54;8.90;;;5.80;;
62584;SDS011;48643;51.670;5.808;2023-03-01T06:38:23;9.27;;;5.68;;
62584;SDS011;48643;51.670;5.808;2023-03-01T06:40:54;9.73;;;5.65;;
62584;SDS011;48643;51.670;5.808;2023-03-01T06:43:23;10.23;;;5.95;;
62584;SDS011;48643;51.670;5.808;2023-03-01T06:45:50;8.38;;;5.75;;
62584;SDS011;48643;51.670;5.808;2023-03-01T06:48:16;9.82;;;6.00;;
62584;SDS011;48643;51.670;5.808;2023-03-01T06:50:43;8.32;;;5.75;;
62584;SDS011;48643;51.670;5.808;2023-03-01T06:53:10;9.73;;;5.93;;
62584;SDS011;48643;51.670;5.808;2023-03-01T06:55:37;13.65;;;5.72;;
62584;SDS011;48643;51.670;5.808;2023-03-01T06:58:04;9.77;;;5.93;;
62584;SDS011;48643;51.670;5.808;2023-03-01T07:00:31;9.88;;;5.72;;
62584;SDS011;48643;51.670;5.808;2023-03-01T07:02:58;7.90;;;5.55;;
62584;SDS011;48643;51.670;5.808;2023-03-01T07:05:26;10.75;;;6.30;;
62584;SDS011;48643;51.670;5.808;2023-03-01T07:07:53;9.20;;;5.80;;
62584;SDS011;48643;51.670;5.808;2023-03-01T07:10:22;10.90;;;6.00;;
62584;SDS011;48643;51.670;5.808;2023-03-01T07:12:49;10.82;;;5.65;;
62584;SDS011;48643;51.670;5.808;2023-03-01T07:15:16;9.00;;;5.95;;
62584;SDS011;48643;51.670;5.808;2023-03-01T07:17:42;8.85;;;5.72;;
62584;SDS011;48643;51.670;5.808;2023-03-01T07:20:11;8.35;;;5.55;;
62584;SDS011;48643;51.670;5.808;2023-03-01T07:22:39;8.63;;;5.57;;
62584;SDS011;48643;51.670;5.808;2023-03-01T07:25:08;8.20;;;5.72;;
62584;SDS011;48643;51.670;5.808;2023-03-01T07:27:36;12.88;;;5.95;;
62584;SDS011;48643;51.670;5.808;2023-03-01T07:30:03;9.07;;;6.03;;
62584;SDS011;48643;51.670;5.808;2023-03-01T07:32:30;9.70;;;6.22;;
62584;SDS011;48643;51.670;5.808;2023-03-01T07:34:57;8.82;;;5.70;;
62584;SDS011;48643;51.670;5.808;2023-03-01T07:37:24;10.98;;;6.00;;
62584;SDS011;48643;51.670;5.808;2023-03-01T07:39:50;12.55;;;8.57;;
62584;SDS011;48643;51.670;5.808;2023-03-01T07:42:17;15.63;;;7.68;;
62584;SDS011;48643;51.670;5.808;2023-03-01T07:44:44;18.73;;;8.38;;
62584;SDS011;48643;51.670;5.808;2023-03-01T07:47:11;16.75;;;8.30;;
62584;SDS011;48643;51.670;5.808;2023-03-01T07:49:38;16.90;;;8.00;;
62584;SDS011;48643;51.670;5.808;2023-03-01T07:52:04;20.50;;;7.88;;
62584;SDS011;48643;51.670;5.808;2023-03-01T07:54:31;20.05;;;7.80;;
62584;SDS011;48643;51.670;5.808;2023-03-01T07:56:58;16.10;;;8.27;;
62584;SDS011;48643;51.670;5.808;2023-03-01T07:59:25;14.48;;;7.90;;
62584;SDS011;48643;51.670;5.808;2023-03-01T08:01:55;15.88;;;7.43;;
62584;SDS011;48643;51.670;5.808;2023-03-01T08:04:23;16.38;;;7.85;;
62584;SDS011;48643;51.670;5.808;2023-03-01T08:06:51;16.10;;;7.57;;
62584;SDS011;48643;51.670;5.808;2023-03-01T08:09:17;19.38;;;7.50;;
62584;SDS011;48643;51.670;5.808;2023-03-01T08:11:44;14.73;;;7.45;;
62584;SDS011;48643;51.670;5.808;2023-03-01T08:14:11;18.33;;;7.85;;
62584;SDS011;48643;51.670;5.808;2023-03-01T08:16:38;14.65;;;7.18;;
62584;SDS011;48643;51.670;5.808;2023-03-01T08:19:06;16.50;;;7.20;;
62584;SDS011;48643;51.670;5.808;2023-03-01T08:21:34;13.43;;;5.65;;
62584;SDS011;48643;51.670;5.808;2023-03-01T08:24:01;9.80;;;5.45;;
62584;SDS011;48643;51.670;5.808;2023-03-01T08:26:29;9.48;;;5.68;;
62584;SDS011;48643;51.670;5.808;2023-03-01T08:28:57;8.57;;;5.40;;
62584;SDS011;48643;51.670;5.808;2023-03-01T08:31:25;13.82;;;5.43;;
62584;SDS011;48643;51.670;5.808;2023-03-01T08:33:57;8.55;;;5.15;;
62584;SDS011;48643;51.670;5.808;2023-03-01T08:36:30;7.72;;;5.13;;
62584;SDS011;48643;51.670;5.808;2023-03-01T08:38:59;10.15;;;4.88;;
62584;SDS011;48643;51.670;5.808;2023-03-01T08:41:26;10.05;;;4.72;;
62584;SDS011;48643;51.670;5.808;2023-03-01T08:43:53;13.70;;;5.05;;
62584;SDS011;48643;51.670;5.808;2023-03-01T08:46:34;8.77;;;4.47;;
62584;SDS011;48643;51.670;5.808;2023-03-01T08:49:03;11.40;;;4.45;;
62584;SDS011;48643;51.670;5.808;2023-03-01T08:51:34;16.25;;;4.20;;
62584;SDS011;48643;51.670;5.808;2023-03-01T08:54:04;13.18;;;4.30;;
62584;SDS011;48643;51.670;5.808;2023-03-01T08:56:32;8.75;;;3.78;;
62584;SDS011;48643;51.670;5.808;2023-03-01T08:58:59;6.28;;;3.78;;
62584;SDS011;48643;51.670;5.808;2023-03-01T09:01:26;10.57;;;3.63;;
62584;SDS011;48643;51.670;5.808;2023-03-01T09:03:53;10.48;;;3.92;;
62584;SDS011;48643;51.670;5.808;2023-03-01T09:06:20;8.80;;;3.50;;
62584;SDS011;48643;51.670;5.808;2023-03-01T09:08:47;7.10;;;3.60;;
62584;SDS011;48643;51.670;5.808;2023-03-01T09:11:16;6.93;;;3.40;;
62584;SDS011;48643;51.670;5.808;2023-03-01T09:13:45;8.80;;;3.33;;
62584;SDS011;48643;51.670;5.808;2023-03-01T09:16:13;7.65;;;3.15;;
62584;SDS011;48643;51.670;5.808;2023-03-01T09:18:43;6.68;;;3.50;;
62584;SDS011;48643;51.670;5.808;2023-03-01T09:21:16;6.95;;;3.30;;
62584;SDS011;48643;51.670;5.808;2023-03-01T09:23:56;7.78;;;3.50;;
62584;SDS011;48643;51.670;5.808;2023-03-01T09:26:23;6.00;;;3.22;;
62584;SDS011;48643;51.670;5.808;2023-03-01T09:28:51;6.03;;;3.10;;
62584;SDS011;48643;51.670;5.808;2023-03-01T09:31:19;5.53;;;3.17;;
62584;SDS011;48643;51.670;5.808;2023-03-01T09:33:47;5.15;;;2.90;;
62584;SDS011;48643;51.670;5.808;2023-03-01T09:36:16;4.97;;;2.90;;
62584;SDS011;48643;51.670;5.808;2023-03-01T09:38:47;8.25;;;3.33;;
62584;SDS011;48643;51.670;5.808;2023-03-01T09:46:43;5.80;;;3.25;;
62584;SDS011;48643;51.670;5.808;2023-03-01T09:49:14;5.50;;;2.75;;
62584;SDS011;48643;51.670;5.808;2023-03-01T09:51:49;4.78;;;2.58;;
62584;SDS011;48643;51.670;5.808;2023-03-01T09:54:32;5.45;;;2.58;;
62584;SDS011;48643;51.670;5.808;2023-03-01T10:05:28;8.48;;;3.00;;
62584;SDS011;48643;51.670;5.808;2023-03-01T10:10:38;4.43;;;2.65;;
62584;SDS011;48643;51.670;5.808;2023-03-01T10:13:17;5.13;;;2.67;;
62584;SDS011;48643;51.670;5.808;2023-03-01T10:15:53;6.22;;;3.00;;
62584;SDS011;48643;51.670;5.808;2023-03-01T10:18:27;4.70;;;2.80;;
62584;SDS011;48643;51.670;5.808;2023-03-01T10:20:57;6.30;;;2.80;;
62584;SDS011;48643;51.670;5.808;2023-03-01T10:23:26;4.32;;;2.65;;
62584;SDS011;48643;51.670;5.808;2023-03-01T10:29:02;5.63;;;2.72;;
62584;SDS011;48643;51.670;5.808;2023-03-01T10:31:37;7.45;;;2.72;;
62584;SDS011;48643;51.670;5.808;2023-03-01T10:34:21;4.63;;;2.78;;
62584;SDS011;48643;51.670;5.808;2023-03-01T10:36:56;3.83;;;2.50;;
62584;SDS011;48643;51.670;5.808;2023-03-01T10:39:24;5.13;;;2.70;;
62584;SDS011;48643;51.670;5.808;2023-03-01T10:41:56;4.97;;;2.80;;
62584;SDS011;48643;51.670;5.808;2023-03-01T10:44:44;4.50;;;2.65;;
62584;SDS011;48643;51.670;5.808;2023-03-01T10:47:13;5.15;;;2.50;;
62584;SDS011;48643;51.670;5.808;2023-03-01T10:49:57;4.43;;;2.80;;
62584;SDS011;48643;51.670;5.808;2023-03-01T10:52:27;11.10;;;3.10;;
62584;SDS011;48643;51.670;5.808;2023-03-01T10:55:22;9.82;;;3.90;;
62584;SDS011;48643;51.670;5.808;2023-03-01T11:00:52;5.28;;;3.00;;
62584;SDS011;48643;51.670;5.808;2023-03-01T11:03:26;7.78;;;2.92;;
62584;SDS011;48643;51.670;5.808;2023-03-01T11:08:42;11.10;;;3.08;;
62584;SDS011;48643;51.670;5.808;2023-03-01T11:13:50;11.52;;;3.05;;
62584;SDS011;48643;51.670;5.808;2023-03-01T11:17:00;9.15;;;2.70;;
62584;SDS011;48643;51.670;5.808;2023-03-01T11:19:28;14.20;;;2.85;;
62584;SDS011;48643;51.670;5.808;2023-03-01T11:22:07;9.05;;;2.78;;
62584;SDS011;48643;51.670;5.808;2023-03-01T11:24:49;5.05;;;2.60;;
62584;SDS011;48643;51.670;5.808;2023-03-01T11:27:36;5.53;;;2.90;;
62584;SDS011;48643;51.670;5.808;2023-03-01T11:32:43;6.15;;;2.90;;
62584;SDS011;48643;51.670;5.808;2023-03-01T11:35:26;5.43;;;3.03;;
62584;SDS011;48643;51.670;5.808;2023-03-01T11:37:57;7.60;;;2.63;;
62584;SDS011;48643;51.670;5.808;2023-03-01T11:46:17;5.75;;;2.80;;
62584;SDS011;48643;51.670;5.808;2023-03-01T11:49:15;4.85;;;2.70;;
62584;SDS011;48643;51.670;5.808;2023-03-01T12:01:11;4.03;;;3.03;;
62584;SDS011;48643;51.670;5.808;2023-03-01T12:04:01;6.78;;;2.80;;
62584;SDS011;48643;51.670;5.808;2023-03-01T12:06:41;4.53;;;3.00;;
62584;SDS011;48643;51.670;5.808;2023-03-01T12:20:28;4.10;;;3.70;;
62584;SDS011;48643;51.670;5.808;2023-03-01T12:28:51;7.82;;;6.00;;
62584;SDS011;48643;51.670;5.808;2023-03-01T12:33:57;6.22;;;4.78;;
62584;SDS011;48643;51.670;5.808;2023-03-01T12:36:52;7.50;;;5.65;;
62584;SDS011;48643;51.670;5.808;2023-03-01T12:39:57;6.53;;;4.55;;
62584;SDS011;48643;51.670;5.808;2023-03-01T12:51:03;5.13;;;2.95;;
62584;SDS011;48643;51.670;5.808;2023-03-01T12:53:34;4.15;;;2.75;;
62584;SDS011;48643;51.670;5.808;2023-03-01T12:56:06;4.00;;;2.90;;
62584;SDS011;48643;51.670;5.808;2023-03-01T12:58:41;12.10;;;2.90;;
62584;SDS011;48643;51.670;5.808;2023-03-01T13:01:31;5.88;;;3.05;;
62584;SDS011;48643;51.670;5.808;2023-03-01T13:12:42;4.22;;;2.80;;
62584;SDS011;48643;51.670;5.808;2023-03-01T13:15:24;4.15;;;2.75;;
62584;SDS011;48643;51.670;5.808;2023-03-01T13:17:53;5.55;;;2.70;;
62584;SDS011;48643;51.670;5.808;2023-03-01T13:20:23;4.28;;;2.85;;
62584;SDS011;48643;51.670;5.808;2023-03-01T13:33:42;4.63;;;2.70;;
62584;SDS011;48643;51.670;5.808;2023-03-01T13:41:58;5.18;;;2.65;;
62584;SDS011;48643;51.670;5.808;2023-03-01T13:44:36;3.75;;;2.70;;
62584;SDS011;48643;51.670;5.808;2023-03-01T13:49:42;5.07;;;2.95;;
62584;SDS011;48643;51.670;5.808;2023-03-01T13:57:50;6.80;;;2.70;;
62584;SDS011;48643;51.670;5.808;2023-03-01T14:00:27;4.50;;;2.80;;
62584;SDS011;48643;51.670;5.808;2023-03-01T14:03:03;3.92;;;2.72;;
62584;SDS011;48643;51.670;5.808;2023-03-01T14:05:38;5.57;;;2.90;;
62584;SDS011;48643;51.670;5.808;2023-03-01T14:08:18;5.32;;;2.80;;
62584;SDS011;48643;51.670;5.808;2023-03-01T14:10:54;4.53;;;3.05;;
62584;SDS011;48643;51.670;5.808;2023-03-01T14:13:36;4.80;;;2.90;;
62584;SDS011;48643;51.670;5.808;2023-03-01T14:16:16;4.47;;;2.80;;
62584;SDS011;48643;51.670;5.808;2023-03-01T14:19:09;5.57;;;2.92;;
62584;SDS011;48643;51.670;5.808;2023-03-01T14:24:30;4.78;;;2.60;;
62584;SDS011;48643;51.670;5.808;2023-03-01T14:27:00;7.10;;;3.50;;
62584;SDS011;48643;51.670;5.808;2023-03-01T14:29:37;5.70;;;3.20;;
62584;SDS011;48643;51.670;5.808;2023-03-01T14:34:49;4.60;;;3.00;;
62584;SDS011;48643;51.670;5.808;2023-03-01T14:39:58;4.45;;;3.03;;
62584;SDS011;48643;51.670;5.808;2023-03-01T14:44:55;5.53;;;3.58;;
62584;SDS011;48643;51.670;5.808;2023-03-01T14:50:04;14.65;;;3.58;;
62584;SDS011;48643;51.670;5.808;2023-03-01T14:52:48;9.40;;;3.28;;
62584;SDS011;48643;51.670;5.808;2023-03-01T14:55:30;10.98;;;3.47;;
62584;SDS011;48643;51.670;5.808;2023-03-01T14:58:05;17.60;;;4.30;;
62584;SDS011;48643;51.670;5.808;2023-03-01T15:00:35;9.20;;;3.90;;
62584;SDS011;48643;51.670;5.808;2023-03-01T15:03:05;6.70;;;3.72;;
62584;SDS011;48643;51.670;5.808;2023-03-01T15:05:40;7.00;;;3.83;;
62584;SDS011;48643;51.670;5.808;2023-03-01T15:08:11;8.55;;;4.15;;
62584;SDS011;48643;51.670;5.808;2023-03-01T15:10:55;11.82;;;4.43;;
62584;SDS011;48643;51.670;5.808;2023-03-01T15:13:24;7.53;;;4.40;;
62584;SDS011;48643;51.670;5.808;2023-03-01T15:15:53;9.05;;;4.32;;
62584;SDS011;48643;51.670;5.808;2023-03-01T15:18:36;6.90;;;4.25;;
62584;SDS011;48643;51.670;5.808;2023-03-01T15:21:09;6.80;;;4.50;;
62584;SDS011;48643;51.670;5.808;2023-03-01T15:26:53;7.88;;;4.40;;
62584;SDS011;48643;51.670;5.808;2023-03-01T15:29:28;6.53;;;4.13;;
62584;SDS011;48643;51.670;5.808;2023-03-01T15:32:00;6.82;;;4.15;;
62584;SDS011;48643;51.670;5.808;2023-03-01T15:34:34;7.25;;;4.35;;
62584;SDS011;48643;51.670;5.808;2023-03-01T15:37:15;7.03;;;4.45;;
62584;SDS011;48643;51.670;5.808;2023-03-01T15:43:05;7.28;;;4.57;;
62584;SDS011;48643;51.670;5.808;2023-03-01T15:45:33;7.63;;;4.53;;
62584;SDS011;48643;51.670;5.808;2023-03-01T15:48:05;11.27;;;6.90;;
62584;SDS011;48643;51.670;5.808;2023-03-01T15:50:44;9.23;;;5.20;;
62584;SDS011;48643;51.670;5.808;2023-03-01T15:53:12;13.98;;;4.13;;
62584;SDS011;48643;51.670;5.808;2023-03-01T15:55:43;7.63;;;3.97;;
62584;SDS011;48643;51.670;5.808;2023-03-01T15:58:12;7.32;;;4.20;;
62584;SDS011;48643;51.670;5.808;2023-03-01T16:00:40;9.15;;;4.30;;
62584;SDS011;48643;51.670;5.808;2023-03-01T16:03:25;7.45;;;3.85;;
62584;SDS011;48643;51.670;5.808;2023-03-01T16:05:52;8.40;;;3.92;;
62584;SDS011;48643;51.670;5.808;2023-03-01T16:08:19;10.48;;;3.90;;
62584;SDS011;48643;51.670;5.808;2023-03-01T16:10:46;6.80;;;3.90;;
62584;SDS011;48643;51.670;5.808;2023-03-01T16:13:16;7.63;;;4.18;;
62584;SDS011;48643;51.670;5.808;2023-03-01T16:15:43;6.70;;;4.20;;
62584;SDS011;48643;51.670;5.808;2023-03-01T16:18:10;6.05;;;4.32;;
62584;SDS011;48643;51.670;5.808;2023-03-01T16:20:38;6.85;;;4.60;;
62584;SDS011;48643;51.670;5.808;2023-03-01T16:23:06;8.15;;;5.00;;
62584;SDS011;48643;51.670;5.808;2023-03-01T16:25:34;9.38;;;4.93;;
62584;SDS011;48643;51.670;5.808;2023-03-01T16:28:01;7.38;;;4.50;;
62584;SDS011;48643;51.670;5.808;2023-03-01T16:30:35;8.32;;;4.60;;
62584;SDS011;48643;51.670;5.808;2023-03-01T16:33:03;9.07;;;4.78;;
62584;SDS011;48643;51.670;5.808;2023-03-01T16:35:49;8.18;;;4.60;;
62584;SDS011;48643;51.670;5.808;2023-03-01T16:38:16;6.85;;;4.40;;
62584;SDS011;48643;51.670;5.808;2023-03-01T16:40:47;9.65;;;4.53;;
62584;SDS011;48643;51.670;5.808;2023-03-01T16:43:15;7.75;;;4.50;;
62584;SDS011;48643;51.670;5.808;2023-03-01T16:45:42;6.85;;;4.63;;
62584;SDS011;48643;51.670;5.808;2023-03-01T16:48:11;6.72;;;4.22;;
62584;SDS011;48643;51.670;5.808;2023-03-01T16:50:38;5.53;;;4.03;;
62584;SDS011;48643;51.670;5.808;2023-03-01T16:53:05;7.57;;;4.53;;
62584;SDS011;48643;51.670;5.808;2023-03-01T16:55:32;7.65;;;4.45;;
62584;SDS011;48643;51.670;5.808;2023-03-01T16:57:59;8.27;;;4.50;;
62584;SDS011;48643;51.670;5.808;2023-03-01T17:00:26;6.80;;;4.35;;
62584;SDS011;48643;51.670;5.808;2023-03-01T17:02:53;7.78;;;4.53;;
62584;SDS011;48643;51.670;5.808;2023-03-01T17:05:20;6.60;;;4.30;;
62584;SDS011;48643;51.670;5.808;2023-03-01T17:07:49;8.30;;;4.38;;
62584;SDS011;48643;51.670;5.808;2023-03-01T17:10:16;7.93;;;4.70;;
62584;SDS011;48643;51.670;5.808;2023-03-01T17:12:43;7.13;;;4.53;;
62584;SDS011;48643;51.670;5.808;2023-03-01T17:15:10;6.75;;;4.43;;
62584;SDS011;48643;51.670;5.808;2023-03-01T17:17:38;8.65;;;4.57;;
62584;SDS011;48643;51.670;5.808;2023-03-01T17:20:05;6.15;;;4.25;;